Time;durP1;ratioP1;P1;durP2;ratioP2;P2;SDS_P1;SDS_P2;PMS_P1;PMS_P2;Temp;Humidity;BMP_temperature;BMP_pressure;BME280_temperature;BME280_humidity;BME280_pressure;Samples;Min_cycle;Max_cycle;Signal;HPM_P1;HPM_P2
2023/08/25 00:00:31;;;;;;;11.20;2.70;;;;;;;;;;5051236;28;20139;-65
2023/08/25 00:02:57;;;;;;;5.22;2.70;;;;;;;;;;5051360;28;20052;-65
2023/08/25 00:05:22;;;;;;;5.45;3.05;;;;;;;;;;5053701;28;20051;-65
2023/08/25 00:07:48;;;;;;;10.05;2.88;;;;;;;;;;5055332;28;20049;-64
2023/08/25 00:10:14;;;;;;;7.22;3.05;;;;;;;;;;5055225;28;20044;-64
2023/08/25 00:12:41;;;;;;;6.63;2.70;;;;;;;;;;5037625;28;20086;-65
2023/08/25 00:15:07;;;;;;;8.15;3.65;;;;;;;;;;5054087;28;20083;-65
2023/08/25 00:17:32;;;;;;;8.73;3.00;;;;;;;;;;5070989;28;20036;-65
2023/08/25 00:19:58;;;;;;;6.95;2.53;;;;;;;;;;5054145;28;20052;-65
2023/08/25 00:22:24;;;;;;;10.80;2.83;;;;;;;;;;5037554;28;20036;-65
2023/08/25 00:24:55;;;;;;;6.93;2.88;;;;;;;;;;5070338;28;20048;-65
2023/08/25 00:27:21;;;;;;;4.93;2.72;;;;;;;;;;5070787;28;20115;-64
2023/08/25 00:29:47;;;;;;;14.38;3.10;;;;;;;;;;5036795;28;20123;-65
2023/08/25 00:32:13;;;;;;;5.07;2.70;;;;;;;;;;5070277;28;20043;-65
2023/08/25 00:34:39;;;;;;;13.88;2.97;;;;;;;;;;5053731;28;20039;-65
2023/08/25 00:37:07;;;;;;;6.03;2.90;;;;;;;;;;5050666;28;20057;-65
2023/08/25 00:39:33;;;;;;;7.55;2.97;;;;;;;;;;5051663;28;20040;-65
2023/08/25 00:41:58;;;;;;;5.82;2.85;;;;;;;;;;5050708;28;20340;-65
2023/08/25 00:44:25;;;;;;;6.40;2.85;;;;;;;;;;5033963;28;20373;-65
2023/08/25 00:46:52;;;;;;;11.98;3.58;;;;;;;;;;5050361;28;20037;-64
2023/08/25 00:49:20;;;;;;;5.35;3.03;;;;;;;;;;5050589;28;20380;-65
2023/08/25 00:51:45;;;;;;;5.35;2.67;;;;;;;;;;5050757;28;20114;-65
2023/08/25 00:54:12;;;;;;;7.22;3.10;;;;;;;;;;5050859;28;20041;-65
2023/08/25 00:56:37;;;;;;;8.88;3.40;;;;;;;;;;5052545;28;20368;-65
2023/08/25 00:59:04;;;;;;;9.30;3.22;;;;;;;;;;5054616;28;20036;-65
2023/08/25 01:01:30;;;;;;;9.68;3.55;;;;;;;;;;5037988;28;20056;-65
2023/08/25 01:03:56;;;;;;;9.48;3.90;;;;;;;;;;5055461;28;20037;-65
2023/08/25 01:06:22;;;;;;;5.93;3.33;;;;;;;;;;5021165;28;20043;-65
2023/08/25 01:08:48;;;;;;;9.80;3.40;;;;;;;;;;5054157;28;20039;-65
2023/08/25 01:11:33;;;;;;;9.48;3.50;;;;;;;;;;5037761;28;20044;-65
2023/08/25 01:14:06;;;;;;;8.38;3.80;;;;;;;;;;5021497;28;20037;-65
2023/08/25 01:16:58;;;;;;;6.03;3.47;;;;;;;;;;5021344;28;20521;-67
2023/08/25 01:19:38;;;;;;;11.20;3.50;;;;;;;;;;5052778;28;20040;-64
2023/08/25 01:22:07;;;;;;;11.85;3.63;;;;;;;;;;5053926;28;20095;-65
2023/08/25 01:24:35;;;;;;;7.28;3.80;;;;;;;;;;5021039;28;20029;-67
2023/08/25 01:27:01;;;;;;;8.15;3.10;;;;;;;;;;5037769;28;20037;-64
2023/08/25 01:29:27;;;;;;;10.15;3.65;;;;;;;;;;5054803;28;20025;-65
2023/08/25 01:31:56;;;;;;;6.45;3.40;;;;;;;;;;5054763;28;20353;-65
2023/08/25 01:34:24;;;;;;;8.88;4.25;;;;;;;;;;5020633;28;20443;-64
2023/08/25 01:36:57;;;;;;;6.40;3.92;;;;;;;;;;5054432;28;20044;-65
2023/08/25 01:39:25;;;;;;;9.57;3.65;;;;;;;;;;5053648;28;20056;-65
2023/08/25 01:41:58;;;;;;;5.43;3.50;;;;;;;;;;5053780;28;20079;-64
2023/08/25 01:44:24;;;;;;;8.43;3.60;;;;;;;;;;5054990;28;20917;-64
2023/08/25 01:46:51;;;;;;;9.02;3.58;;;;;;;;;;5058571;28;20064;-65
2023/08/25 01:49:17;;;;;;;5.90;3.58;;;;;;;;;;5054800;28;20040;-65
2023/08/25 01:51:44;;;;;;;7.85;3.40;;;;;;;;;;5037479;28;20040;-65
2023/08/25 01:54:10;;;;;;;6.65;3.70;;;;;;;;;;5055292;28;20079;-64
2023/08/25 01:56:35;;;;;;;9.02;3.63;;;;;;;;;;5037826;28;20387;-65
2023/08/25 01:59:02;;;;;;;11.90;3.75;;;;;;;;;;5053431;28;20111;-65
2023/08/25 02:01:30;;;;;;;9.55;3.60;;;;;;;;;;5036772;28;20076;-65
2023/08/25 02:03:57;;;;;;;11.27;4.13;;;;;;;;;;5053594;28;20033;-65
2023/08/25 02:06:25;;;;;;;8.57;3.78;;;;;;;;;;5036766;28;20102;-64
2023/08/25 02:08:50;;;;;;;8.75;3.60;;;;;;;;;;5035355;28;20052;-64
2023/08/25 02:11:16;;;;;;;9.80;3.70;;;;;;;;;;5053136;28;20505;-65
2023/08/25 02:13:44;;;;;;;14.63;4.05;;;;;;;;;;5053123;28;20115;-65
2023/08/25 02:16:10;;;;;;;7.32;3.42;;;;;;;;;;5036357;28;20043;-66
2023/08/25 02:18:37;;;;;;;5.25;3.47;;;;;;;;;;5053282;28;20041;-65
2023/08/25 02:21:03;;;;;;;6.70;3.30;;;;;;;;;;5053273;28;20468;-65
2023/08/25 02:23:29;;;;;;;9.50;4.05;;;;;;;;;;5052809;28;20068;-65
2023/08/25 02:25:55;;;;;;;6.40;3.72;;;;;;;;;;5052894;28;20039;-66
2023/08/25 02:28:20;;;;;;;11.07;3.78;;;;;;;;;;5052862;28;20127;-64
2023/08/25 02:30:47;;;;;;;7.43;3.67;;;;;;;;;;5052778;28;20033;-64
2023/08/25 02:33:13;;;;;;;6.13;3.40;;;;;;;;;;5052891;28;20068;-64
2023/08/25 02:35:38;;;;;;;13.52;3.85;;;;;;;;;;5052945;28;20072;-65
2023/08/25 02:38:06;;;;;;;10.50;3.72;;;;;;;;;;5053027;28;20040;-65
2023/08/25 02:40:32;;;;;;;14.52;4.05;;;;;;;;;;5053159;28;20114;-65
2023/08/25 02:42:58;;;;;;;10.70;3.65;;;;;;;;;;5035550;28;20061;-65
2023/08/25 02:45:25;;;;;;;10.15;4.03;;;;;;;;;;5036560;28;20106;-65
2023/08/25 02:47:51;;;;;;;4.35;3.53;;;;;;;;;;5054856;28;20487;-65
2023/08/25 02:50:17;;;;;;;10.98;3.60;;;;;;;;;;5037650;28;20427;-65
2023/08/25 02:52:42;;;;;;;10.63;4.65;;;;;;;;;;5053136;28;20072;-65
2023/08/25 02:55:08;;;;;;;5.75;3.90;;;;;;;;;;5052570;28;20056;-67
2023/08/25 02:57:33;;;;;;;9.18;3.97;;;;;;;;;;5052783;28;20040;-64
2023/08/25 02:59:59;;;;;;;6.45;3.67;;;;;;;;;;5051970;28;20349;-65
2023/08/25 03:02:25;;;;;;;9.98;3.53;;;;;;;;;;5019305;28;20049;-64
2023/08/25 03:04:51;;;;;;;6.53;3.92;;;;;;;;;;5052572;28;20383;-65
2023/08/25 03:07:16;;;;;;;8.52;4.05;;;;;;;;;;5052487;28;20361;-64
2023/08/25 03:09:42;;;;;;;8.88;3.80;;;;;;;;;;5053737;28;20098;-65
2023/08/25 03:12:08;;;;;;;8.98;4.38;;;;;;;;;;5052816;28;20328;-65
2023/08/25 03:14:34;;;;;;;9.88;3.85;;;;;;;;;;5036168;28;20044;-65
2023/08/25 03:17:00;;;;;;;10.32;4.10;;;;;;;;;;5035400;28;20040;-65
2023/08/25 03:19:25;;;;;;;9.80;3.67;;;;;;;;;;5035084;28;20037;-65
2023/08/25 03:21:52;;;;;;;7.18;3.58;;;;;;;;;;5051973;28;20060;-65
2023/08/25 03:24:18;;;;;;;10.35;4.00;;;;;;;;;;5036552;28;20033;-64
2023/08/25 03:26:44;;;;;;;7.38;3.70;;;;;;;;;;5056911;28;20069;-65
2023/08/25 03:29:09;;;;;;;8.73;3.67;;;;;;;;;;5055970;28;20493;-67
2023/08/25 03:31:35;;;;;;;9.65;4.13;;;;;;;;;;5036077;28;20043;-65
2023/08/25 03:34:02;;;;;;;10.95;3.95;;;;;;;;;;5035378;28;20033;-65
2023/08/25 03:36:30;;;;;;;10.25;4.07;;;;;;;;;;5052582;28;20040;-66
2023/08/25 03:38:56;;;;;;;11.60;4.60;;;;;;;;;;5019431;28;20036;-64
2023/08/25 03:41:22;;;;;;;8.70;3.70;;;;;;;;;;5052149;28;20123;-64
2023/08/25 03:43:48;;;;;;;13.60;4.57;;;;;;;;;;5035539;28;20055;-64
2023/08/25 03:46:14;;;;;;;10.98;4.07;;;;;;;;;;5035313;28;20044;-65
2023/08/25 03:48:39;;;;;;;11.32;4.35;;;;;;;;;;5052330;28;20482;-65
2023/08/25 03:51:05;;;;;;;12.35;4.25;;;;;;;;;;5052009;28;20379;-65
2023/08/25 03:53:30;;;;;;;10.52;3.90;;;;;;;;;;5054053;28;20121;-64
2023/08/25 03:55:56;;;;;;;12.45;4.20;;;;;;;;;;5051697;28;20147;-64
2023/08/25 03:58:22;;;;;;;9.07;3.95;;;;;;;;;;5018290;28;20032;-65
2023/08/25 04:00:51;;;;;;;15.07;4.32;;;;;;;;;;5052073;28;20048;-65
2023/08/25 04:03:17;;;;;;;9.27;4.05;;;;;;;;;;5051176;28;20117;-64
2023/08/25 04:05:43;;;;;;;11.85;4.18;;;;;;;;;;5051148;28;20464;-65
2023/08/25 04:08:10;;;;;;;12.15;4.45;;;;;;;;;;5053413;28;20097;-67
2023/08/25 04:10:36;;;;;;;13.10;4.25;;;;;;;;;;5052988;28;20439;-65
2023/08/25 04:13:01;;;;;;;9.30;4.35;;;;;;;;;;5035090;28;20992;-65
2023/08/25 04:15:27;;;;;;;24.70;4.63;;;;;;;;;;5050779;28;20021;-65
2023/08/25 04:17:53;;;;;;;13.13;4.35;;;;;;;;;;5051531;28;20033;-65
2023/08/25 04:20:19;;;;;;;10.52;4.45;;;;;;;;;;5051150;28;20048;-65
2023/08/25 04:22:44;;;;;;;10.55;4.45;;;;;;;;;;5051057;28;20458;-65
2023/08/25 04:25:10;;;;;;;15.35;4.50;;;;;;;;;;5052546;28;20028;-65
2023/08/25 04:27:36;;;;;;;13.32;4.63;;;;;;;;;;5052302;28;20045;-64
2023/08/25 04:30:04;;;;;;;9.50;4.22;;;;;;;;;;5050484;28;20440;-65
2023/08/25 04:32:31;;;;;;;13.27;3.83;;;;;;;;;;5051221;28;20047;-65
2023/08/25 04:34:57;;;;;;;12.52;4.65;;;;;;;;;;5051340;28;20033;-65
2023/08/25 04:37:23;;;;;;;18.88;8.25;;;;;;;;;;5051349;28;20037;-65
2023/08/25 04:39:49;;;;;;;15.90;5.38;;;;;;;;;;5050715;28;20412;-65
2023/08/25 04:42:14;;;;;;;9.57;4.13;;;;;;;;;;5050493;28;20056;-66
2023/08/25 04:44:40;;;;;;;12.85;4.18;;;;;;;;;;5051678;28;20032;-65
2023/08/25 04:47:07;;;;;;;12.02;4.30;;;;;;;;;;5033675;28;20049;-66
2023/08/25 04:49:33;;;;;;;10.73;4.55;;;;;;;;;;5017466;28;20338;-65
2023/08/25 04:52:00;;;;;;;12.43;4.55;;;;;;;;;;5033517;28;20372;-65
2023/08/25 04:54:26;;;;;;;12.73;4.22;;;;;;;;;;5047631;28;20029;-65
2023/08/25 04:56:54;;;;;;;9.00;4.10;;;;;;;;;;5024873;28;20121;-66
2023/08/25 04:59:20;;;;;;;13.75;4.05;;;;;;;;;;5023612;28;20041;-65
2023/08/25 05:01:46;;;;;;;8.25;3.95;;;;;;;;;;5039132;28;20360;-66
2023/08/25 05:04:12;;;;;;;9.52;4.25;;;;;;;;;;5027496;28;20033;-65
2023/08/25 05:06:39;;;;;;;9.63;3.90;;;;;;;;;;5013076;28;20041;-64
2023/08/25 05:09:04;;;;;;;7.07;3.90;;;;;;;;;;5039035;28;20530;-69
2023/08/25 05:11:33;;;;;;;11.43;3.78;;;;;;;;;;5031765;28;20124;-65
2023/08/25 05:14:00;;;;;;;16.65;3.50;;;;;;;;;;5031863;28;20029;-65
2023/08/25 05:16:26;;;;;;;8.50;3.20;;;;;;;;;;5038962;28;20041;-65
2023/08/25 05:18:57;;;;;;;13.10;3.72;;;;;;;;;;5024220;28;20037;-65
2023/08/25 05:21:23;;;;;;;12.27;3.03;;;;;;;;;;5040007;28;20041;-65
2023/08/25 05:23:53;;;;;;;10.93;3.13;;;;;;;;;;5038709;28;20038;-65
2023/08/25 05:26:19;;;;;;;9.40;2.88;;;;;;;;;;5031885;28;20037;-66
2023/08/25 05:28:55;;;;;;;14.27;3.97;;;;;;;;;;5001424;28;20152;-65
2023/08/25 05:31:22;;;;;;;8.50;3.50;;;;;;;;;;5013858;28;20029;-65
2023/08/25 05:34:11;;;;;;;8.02;3.58;;;;;;;;;;5016575;28;20041;-65
2023/08/25 05:36:46;;;;;;;15.73;3.47;;;;;;;;;;5014214;28;20029;-65
2023/08/25 05:39:12;;;;;;;6.43;2.55;;;;;;;;;;5030936;28;20037;-65
2023/08/25 05:41:38;;;;;;;9.35;2.97;;;;;;;;;;4997146;28;20111;-65
2023/08/25 05:44:04;;;;;;;11.80;3.20;;;;;;;;;;5032405;28;20041;-65
2023/08/25 05:46:31;;;;;;;11.52;3.05;;;;;;;;;;5016258;28;20037;-65
2023/08/25 05:48:57;;;;;;;10.07;2.80;;;;;;;;;;5032837;28;20094;-67
2023/08/25 05:51:23;;;;;;;3.20;1.80;;;;;;;;;;5016698;28;20033;-65
2023/08/25 05:53:49;;;;;;;4.05;2.10;;;;;;;;;;5016463;28;20041;-65
2023/08/25 05:56:16;;;;;;;6.68;2.38;;;;;;;;;;5034372;28;20631;-65
2023/08/25 05:58:42;;;;;;;5.68;2.10;;;;;;;;;;5034580;28;20202;-65
2023/08/25 06:01:08;;;;;;;4.00;2.13;;;;;;;;;;5034197;28;20458;-65
2023/08/25 06:03:34;;;;;;;3.97;2.30;;;;;;;;;;5033454;28;20033;-64
2023/08/25 06:06:00;;;;;;;7.57;2.30;;;;;;;;;;5033505;28;20385;-66
2023/08/25 06:08:26;;;;;;;9.10;3.22;;;;;;;;;;5017218;28;20068;-66
2023/08/25 06:10:52;;;;;;;7.80;2.83;;;;;;;;;;5034515;28;20092;-67
2023/08/25 06:13:18;;;;;;;6.13;2.90;;;;;;;;;;5034022;28;20048;-68
2023/08/25 06:15:44;;;;;;;4.38;2.55;;;;;;;;;;5018012;28;20048;-66
2023/08/25 06:18:09;;;;;;;7.90;2.67;;;;;;;;;;5033424;28;20041;-66
2023/08/25 06:20:35;;;;;;;9.23;2.00;;;;;;;;;;5033399;28;20049;-66
2023/08/25 06:23:01;;;;;;;4.22;1.85;;;;;;;;;;5016905;28;20040;-66
2023/08/25 06:25:26;;;;;;;6.53;2.53;;;;;;;;;;5017040;28;20034;-66
2023/08/25 06:27:53;;;;;;;10.85;1.80;;;;;;;;;;5035145;28;20559;-66
2023/08/25 06:30:18;;;;;;;2.25;1.60;;;;;;;;;;5019329;28;20072;-66
2023/08/25 06:32:45;;;;;;;3.10;1.50;;;;;;;;;;5035033;28;20087;-65
2023/08/25 06:35:12;;;;;;;5.57;1.75;;;;;;;;;;5016949;28;20045;-66
2023/08/25 06:37:37;;;;;;;6.10;1.80;;;;;;;;;;5061335;28;20113;-65
2023/08/25 06:40:13;;;;;;;4.60;1.50;;;;;;;;;;5045861;28;20123;-65
2023/08/25 06:42:38;;;;;;;1.75;1.23;;;;;;;;;;5042908;28;20053;-65
2023/08/25 06:45:05;;;;;;;3.88;1.27;;;;;;;;;;5042360;28;20037;-66
2023/08/25 06:47:31;;;;;;;4.55;1.50;;;;;;;;;;5045004;28;20163;-65
2023/08/25 06:49:57;;;;;;;4.70;1.50;;;;;;;;;;5061667;28;20143;-65
2023/08/25 06:52:23;;;;;;;2.70;1.48;;;;;;;;;;5046376;28;20048;-65
2023/08/25 06:54:48;;;;;;;4.75;1.70;;;;;;;;;;5040393;28;20039;-66
2023/08/25 06:57:14;;;;;;;4.95;1.52;;;;;;;;;;5039954;28;20089;-65
2023/08/25 06:59:40;;;;;;;5.70;1.60;;;;;;;;;;5046822;28;20048;-65
2023/08/25 07:02:07;;;;;;;7.05;1.60;;;;;;;;;;5040956;28;20033;-66
2023/08/25 07:04:33;;;;;;;9.90;1.45;;;;;;;;;;5049384;28;20045;-65
2023/08/25 07:07:00;;;;;;;3.45;1.02;;;;;;;;;;5052249;28;20060;-65
2023/08/25 07:09:26;;;;;;;2.85;1.30;;;;;;;;;;5035922;28;20037;-65
2023/08/25 07:11:52;;;;;;;7.90;1.40;;;;;;;;;;5052655;28;20094;-65
2023/08/25 07:14:18;;;;;;;4.38;1.30;;;;;;;;;;5035568;28;20049;-66
2023/08/25 07:16:43;;;;;;;3.13;1.17;;;;;;;;;;5050193;28;20037;-65
2023/08/25 07:19:09;;;;;;;6.05;1.20;;;;;;;;;;5050559;28;20102;-67
2023/08/25 07:21:35;;;;;;;2.70;1.48;;;;;;;;;;5018221;28;20047;-69
2023/08/25 07:24:01;;;;;;;8.57;1.30;;;;;;;;;;5035017;28;20048;-66
2023/08/25 07:26:27;;;;;;;4.68;1.45;;;;;;;;;;5034520;28;20098;-65
2023/08/25 07:28:53;;;;;;;1.98;1.05;;;;;;;;;;5034297;28;20206;-66
2023/08/25 07:31:19;;;;;;;7.07;1.23;;;;;;;;;;5051192;28;20140;-66
2023/08/25 07:33:45;;;;;;;3.03;1.20;;;;;;;;;;5050596;28;20048;-66
2023/08/25 07:36:10;;;;;;;6.45;1.70;;;;;;;;;;5034109;28;20430;-66
2023/08/25 07:38:36;;;;;;;8.27;1.05;;;;;;;;;;5033670;28;20051;-67
2023/08/25 07:41:02;;;;;;;3.45;1.15;;;;;;;;;;5033669;28;20057;-66
2023/08/25 07:43:28;;;;;;;4.78;1.80;;;;;;;;;;5033740;28;20482;-66
2023/08/25 07:45:54;;;;;;;3.03;1.38;;;;;;;;;;5029949;28;20041;-67
2023/08/25 07:48:23;;;;;;;3.47;1.30;;;;;;;;;;4997803;28;20049;-68
2023/08/25 07:50:51;;;;;;;4.90;1.05;;;;;;;;;;4997940;28;20053;-67
2023/08/25 07:53:18;;;;;;;7.05;1.42;;;;;;;;;;5014050;28;20143;-68
2023/08/25 07:55:43;;;;;;;1.50;0.93;;;;;;;;;;5029983;28;20598;-68
2023/08/25 07:58:10;;;;;;;3.38;1.17;;;;;;;;;;4994531;28;20071;-68
2023/08/25 08:00:37;;;;;;;5.47;1.27;;;;;;;;;;5013824;28;20056;-68
2023/08/25 08:03:09;;;;;;;3.70;1.08;;;;;;;;;;5014136;28;20400;-68
2023/08/25 08:05:36;;;;;;;2.40;1.10;;;;;;;;;;5005747;28;20034;-69
2023/08/25 08:08:03;;;;;;;2.75;1.13;;;;;;;;;;5019215;28;20807;-68
2023/08/25 08:10:29;;;;;;;4.25;1.00;;;;;;;;;;5017563;28;20045;-68
2023/08/25 08:12:55;;;;;;;4.78;0.95;;;;;;;;;;5022474;28;20474;-69
2023/08/25 08:15:21;;;;;;;6.53;1.38;;;;;;;;;;5011327;28;20029;-69
2023/08/25 08:17:48;;;;;;;5.35;1.17;;;;;;;;;;5013663;28;20507;-68
2023/08/25 08:20:16;;;;;;;6.97;1.20;;;;;;;;;;5012854;28;20803;-69
2023/08/25 08:22:43;;;;;;;5.30;1.30;;;;;;;;;;5031527;28;20038;-69
2023/08/25 08:25:10;;;;;;;2.85;1.33;;;;;;;;;;5021029;28;20033;-67
2023/08/25 08:27:37;;;;;;;3.05;1.45;;;;;;;;;;5025276;28;20035;-68
2023/08/25 08:30:04;;;;;;;2.50;1.30;;;;;;;;;;5037540;28;20487;-67
2023/08/25 08:32:36;;;;;;;4.63;1.17;;;;;;;;;;5034578;28;20033;-67
2023/08/25 08:35:09;;;;;;;6.60;1.70;;;;;;;;;;5050746;28;20037;-67
2023/08/25 08:37:37;;;;;;;3.47;1.30;;;;;;;;;;5050808;28;20110;-67
2023/08/25 08:40:09;;;;;;;5.38;1.33;;;;;;;;;;5050591;28;20432;-67
2023/08/25 08:42:36;;;;;;;2.33;1.40;;;;;;;;;;5017686;28;20386;-66
2023/08/25 08:45:05;;;;;;;5.80;1.55;;;;;;;;;;5049620;28;20349;-67
2023/08/25 08:47:32;;;;;;;3.92;1.30;;;;;;;;;;5021557;28;20041;-67
2023/08/25 08:49:59;;;;;;;4.55;1.38;;;;;;;;;;5029921;28;20033;-68
2023/08/25 08:52:25;;;;;;;2.33;1.20;;;;;;;;;;5050308;28;20478;-67
2023/08/25 08:54:50;;;;;;;5.68;1.40;;;;;;;;;;5051686;28;20455;-68
2023/08/25 08:57:17;;;;;;;2.20;1.05;;;;;;;;;;5051320;28;20032;-68
2023/08/25 08:59:44;;;;;;;3.20;1.17;;;;;;;;;;5033754;28;20041;-68
2023/08/25 09:02:10;;;;;;;3.65;1.08;;;;;;;;;;5051261;28;20450;-69
2023/08/25 09:04:38;;;;;;;3.92;0.88;;;;;;;;;;5017271;28;20098;-69
2023/08/25 09:07:06;;;;;;;2.38;1.23;;;;;;;;;;5050059;28;20039;-68
2023/08/25 09:09:32;;;;;;;2.67;1.10;;;;;;;;;;5050038;28;20048;-67
2023/08/25 09:11:58;;;;;;;5.30;1.38;;;;;;;;;;5033500;28;20426;-68
2023/08/25 09:14:26;;;;;;;7.22;1.25;;;;;;;;;;5046843;28;20553;-70
2023/08/25 09:17:02;;;;;;;3.78;1.10;;;;;;;;;;5030621;28;20357;-69
2023/08/25 09:19:29;;;;;;;3.00;1.20;;;;;;;;;;5045656;28;20044;-69
2023/08/25 09:21:55;;;;;;;7.55;1.20;;;;;;;;;;5052714;28;20056;-70
2023/08/25 09:24:24;;;;;;;1.52;1.00;;;;;;;;;;5047192;28;20468;-70
2023/08/25 09:26:50;;;;;;;4.75;1.30;;;;;;;;;;5041834;28;20076;-68
2023/08/25 09:29:16;;;;;;;6.38;1.52;;;;;;;;;;5008919;28;20057;-69
2023/08/25 09:31:43;;;;;;;4.25;1.40;;;;;;;;;;5041820;28;20111;-67
2023/08/25 09:34:10;;;;;;;9.75;1.50;;;;;;;;;;5029465;28;20482;-68
2023/08/25 09:36:51;;;;;;;3.45;1.30;;;;;;;;;;5042064;28;20073;-68
2023/08/25 09:39:18;;;;;;;3.90;1.38;;;;;;;;;;5025742;28;20072;-68
2023/08/25 09:41:46;;;;;;;4.90;1.20;;;;;;;;;;5029807;28;20500;-68
2023/08/25 09:44:12;;;;;;;4.80;1.45;;;;;;;;;;5026662;28;20120;-68
2023/08/25 09:46:38;;;;;;;6.13;1.90;;;;;;;;;;5025639;28;20045;-68
2023/08/25 09:49:10;;;;;;;2.67;1.40;;;;;;;;;;5041865;28;20086;-67
2023/08/25 09:51:39;;;;;;;4.20;1.00;;;;;;;;;;5059530;28;20053;-68
2023/08/25 09:54:14;;;;;;;4.55;1.40;;;;;;;;;;5042010;28;20587;-68
2023/08/25 09:56:50;;;;;;;7.72;1.42;;;;;;;;;;5022438;28;20427;-67
2023/08/25 09:59:16;;;;;;;4.97;1.20;;;;;;;;;;5025366;28;20052;-67
2023/08/25 10:01:43;;;;;;;4.82;2.25;;;;;;;;;;5037614;28;20048;-67
2023/08/25 10:04:09;;;;;;;2.30;1.40;;;;;;;;;;5024214;28;20542;-67
2023/08/25 10:06:37;;;;;;;7.03;2.10;;;;;;;;;;5024299;28;20128;-67
2023/08/25 10:09:05;;;;;;;6.90;2.50;;;;;;;;;;5017885;28;20033;-67
2023/08/25 10:11:35;;;;;;;7.47;1.98;;;;;;;;;;5044271;28;20103;-67
2023/08/25 10:14:03;;;;;;;4.40;1.75;;;;;;;;;;5046683;28;20025;-67
2023/08/25 10:16:31;;;;;;;3.72;1.50;;;;;;;;;;5045996;28;20060;-67
2023/08/25 10:18:58;;;;;;;3.80;2.13;;;;;;;;;;5018481;28;20496;-68
2023/08/25 10:21:26;;;;;;;4.15;2.30;;;;;;;;;;5028508;28;20068;-68
2023/08/25 10:23:54;;;;;;;5.10;1.92;;;;;;;;;;5023057;28;20041;-68
2023/08/25 10:26:20;;;;;;;6.63;1.90;;;;;;;;;;5019765;28;20028;-68
2023/08/25 10:28:46;;;;;;;6.13;1.95;;;;;;;;;;5038207;28;20476;-69
2023/08/25 10:31:13;;;;;;;8.10;1.77;;;;;;;;;;5041353;28;20479;-69
2023/08/25 10:33:46;;;;;;;3.50;1.70;;;;;;;;;;5042002;28;20033;-67
2023/08/25 10:36:20;;;;;;;5.38;1.67;;;;;;;;;;5034164;28;20037;-68
2023/08/25 10:39:07;;;;;;;4.13;1.40;;;;;;;;;;5039512;28;20441;-69
2023/08/25 10:41:42;;;;;;;5.78;1.48;;;;;;;;;;5042319;28;20413;-68
2023/08/25 10:44:10;;;;;;;8.20;1.23;;;;;;;;;;5041601;28;20037;-68
2023/08/25 10:46:38;;;;;;;4.88;1.20;;;;;;;;;;5042725;28;20037;-68
2023/08/25 10:49:06;;;;;;;3.20;1.40;;;;;;;;;;4993999;28;20041;-69
2023/08/25 10:51:36;;;;;;;4.05;1.40;;;;;;;;;;5024718;28;20126;-70
2023/08/25 10:54:03;;;;;;;8.00;1.33;;;;;;;;;;5041654;28;20041;-71
2023/08/25 10:56:29;;;;;;;4.63;1.40;;;;;;;;;;5052430;28;20090;-73
2023/08/25 10:59:05;;;;;;;4.78;1.45;;;;;;;;;;5026270;28;20509;-70
2023/08/25 11:01:37;;;;;;;2.80;1.45;;;;;;;;;;5065667;28;20055;-70
2023/08/25 11:04:05;;;;;;;4.07;1.13;;;;;;;;;;5035975;28;20032;-69
2023/08/25 11:06:44;;;;;;;4.28;1.50;;;;;;;;;;5051776;28;20036;-71
2023/08/25 11:09:30;;;;;;;4.20;1.40;;;;;;;;;;5052713;28;20040;-68
2023/08/25 11:11:58;;;;;;;5.60;1.50;;;;;;;;;;5052408;28;20087;-68
2023/08/25 11:14:29;;;;;;;5.20;1.55;;;;;;;;;;5013426;28;20048;-69
2023/08/25 11:16:56;;;;;;;8.63;1.88;;;;;;;;;;5013622;28;20457;-68
2023/08/25 11:19:25;;;;;;;8.15;1.67;;;;;;;;;;5004688;28;20048;-71
2023/08/25 11:21:51;;;;;;;;;;;;;;;;;;5013744;28;20124;-70
2023/08/25 11:24:20;;;;;;;6.07;2.50;;;;;;;;;;4996579;28;20071;-69
2023/08/25 11:26:46;;;;;;;6.17;2.03;;;;;;;;;;5029730;28;20512;-69
2023/08/25 11:29:12;;;;;;;14.60;2.67;;;;;;;;;;4996928;28;20046;-70
2023/08/25 11:31:38;;;;;;;8.10;2.20;;;;;;;;;;5012884;28;20057;-69
2023/08/25 11:34:04;;;;;;;7.82;2.20;;;;;;;;;;4993858;28;20106;-69
2023/08/25 11:36:30;;;;;;;4.28;2.40;;;;;;;;;;4993815;28;20068;-69
2023/08/25 11:38:56;;;;;;;10.75;2.10;;;;;;;;;;5027368;28;20037;-69
2023/08/25 11:41:22;;;;;;;7.32;2.20;;;;;;;;;;5009058;28;20068;-68
2023/08/25 11:43:49;;;;;;;7.15;2.10;;;;;;;;;;4994707;28;20461;-69
2023/08/25 11:46:16;;;;;;;7.38;1.92;;;;;;;;;;5010311;28;20521;-69
2023/08/25 11:48:48;;;;;;;9.70;2.75;;;;;;;;;;5030362;28;20476;-69
2023/08/25 11:51:16;;;;;;;9.60;1.90;;;;;;;;;;5029846;28;20454;-68
2023/08/25 11:53:42;;;;;;;8.60;1.98;;;;;;;;;;5031057;28;20037;-69
2023/08/25 11:56:12;;;;;;;8.13;2.00;;;;;;;;;;5031407;28;20026;-69
2023/08/25 11:58:39;;;;;;;7.40;2.25;;;;;;;;;;5030568;28;20037;-69
2023/08/25 12:01:06;;;;;;;3.35;1.60;;;;;;;;;;5030409;28;20086;-69
2023/08/25 12:03:33;;;;;;;5.55;2.03;;;;;;;;;;5013552;28;20469;-68
2023/08/25 12:06:03;;;;;;;5.97;1.90;;;;;;;;;;5049221;28;20039;-67
2023/08/25 12:08:30;;;;;;;6.72;2.40;;;;;;;;;;5016257;28;20195;-69
2023/08/25 12:10:56;;;;;;;4.53;1.77;;;;;;;;;;5016296;28;20048;-69
2023/08/25 12:13:23;;;;;;;3.85;1.70;;;;;;;;;;5048060;28;20079;-69
2023/08/25 12:15:51;;;;;;;12.27;3.95;;;;;;;;;;5015688;28;20041;-70
2023/08/25 12:18:20;;;;;;;7.72;2.10;;;;;;;;;;5015853;28;20052;-68
2023/08/25 12:20:46;;;;;;;5.93;1.88;;;;;;;;;;5007068;28;20037;-68
2023/08/25 12:23:13;;;;;;;6.53;2.03;;;;;;;;;;5026782;28;20182;-69
2023/08/25 12:25:42;;;;;;;6.57;2.05;;;;;;;;;;5041928;28;20151;-69
2023/08/25 12:28:07;;;;;;;7.28;2.35;;;;;;;;;;5042291;28;20094;-68
2023/08/25 12:31:04;;;;;;;6.60;2.30;;;;;;;;;;5031763;28;20513;-69
2023/08/25 12:33:30;;;;;;;10.23;2.10;;;;;;;;;;5026612;28;20040;-70
2023/08/25 12:36:00;;;;;;;6.82;2.45;;;;;;;;;;5035486;28;20090;-67
2023/08/25 12:38:32;;;;;;;5.72;2.10;;;;;;;;;;5043340;28;20045;-70
2023/08/25 12:40:59;;;;;;;8.57;3.10;;;;;;;;;;5029463;28;20393;-68
2023/08/25 12:43:25;;;;;;;7.47;4.15;;;;;;;;;;5039374;28;20479;-69
2023/08/25 12:45:51;;;;;;;6.82;2.30;;;;;;;;;;5011371;28;20037;-69
2023/08/25 12:48:18;;;;;;;5.10;2.13;;;;;;;;;;5036302;28;20041;-69
2023/08/25 12:50:45;;;;;;;7.78;2.40;;;;;;;;;;5027091;28;20142;-70
2023/08/25 12:53:10;;;;;;;8.25;2.70;;;;;;;;;;5008992;28;20069;-68
2023/08/25 12:55:37;;;;;;;6.50;2.17;;;;;;;;;;5025933;28;20131;-68
2023/08/25 12:58:03;;;;;;;7.57;2.10;;;;;;;;;;5013396;28;20041;-69
2023/08/25 13:00:29;;;;;;;3.55;1.90;;;;;;;;;;5011775;28;20045;-68
2023/08/25 13:02:55;;;;;;;9.70;3.33;;;;;;;;;;5018652;28;20041;-68
2023/08/25 13:05:21;;;;;;;3.60;2.30;;;;;;;;;;5032658;28;20044;-68
2023/08/25 13:07:47;;;;;;;5.38;2.00;;;;;;;;;;5026847;28;20051;-69
2023/08/25 13:10:13;;;;;;;7.97;2.10;;;;;;;;;;5006515;28;20040;-69
2023/08/25 13:12:40;;;;;;;10.77;2.17;;;;;;;;;;5023796;28;20046;-69
2023/08/25 13:15:07;;;;;;;6.47;2.53;;;;;;;;;;5005870;28;20041;-69
2023/08/25 13:17:34;;;;;;;6.95;2.70;;;;;;;;;;5023904;28;20072;-68
2023/08/25 13:20:00;;;;;;;6.85;2.78;;;;;;;;;;5033186;28;20040;-69
2023/08/25 13:22:26;;;;;;;6.55;2.67;;;;;;;;;;5039198;28;20045;-69
2023/08/25 13:24:52;;;;;;;5.50;2.40;;;;;;;;;;5040323;28;20484;-70
2023/08/25 13:27:18;;;;;;;8.27;2.75;;;;;;;;;;5034281;28;20056;-69
2023/08/25 13:29:45;;;;;;;9.43;3.50;;;;;;;;;;5035576;28;20045;-68
2023/08/25 13:32:12;;;;;;;6.13;2.67;;;;;;;;;;5018049;28;20048;-69
2023/08/25 13:34:38;;;;;;;7.40;2.42;;;;;;;;;;5017632;28;20467;-68
2023/08/25 13:37:06;;;;;;;5.78;2.40;;;;;;;;;;5045016;28;20487;-68
2023/08/25 13:39:33;;;;;;;12.60;7.75;;;;;;;;;;5017853;28;20029;-69
2023/08/25 13:42:00;;;;;;;5.40;3.53;;;;;;;;;;5034712;28;20063;-68
2023/08/25 13:44:25;;;;;;;25.58;17.70;;;;;;;;;;5018300;28;20029;-69
2023/08/25 13:46:51;;;;;;;9.45;5.22;;;;;;;;;;5017438;28;20079;-68
2023/08/25 13:49:17;;;;;;;7.05;4.03;;;;;;;;;;5042995;28;20037;-68
2023/08/25 13:51:43;;;;;;;11.05;3.58;;;;;;;;;;5043662;28;20136;-69
2023/08/25 13:54:08;;;;;;;12.90;3.42;;;;;;;;;;5035920;28;20057;-69
2023/08/25 13:56:34;;;;;;;10.73;4.95;;;;;;;;;;5023874;28;20055;-68
2023/08/25 13:59:01;;;;;;;10.88;3.40;;;;;;;;;;5031611;28;20040;-66
2023/08/25 14:01:29;;;;;;;7.75;2.83;;;;;;;;;;5020339;28;20063;-67
2023/08/25 14:03:56;;;;;;;7.10;2.45;;;;;;;;;;5029576;28;20412;-67
2023/08/25 14:06:22;;;;;;;4.55;2.40;;;;;;;;;;5045722;28;20049;-67
2023/08/25 14:08:48;;;;;;;4.28;2.03;;;;;;;;;;5041441;28;20463;-67
2023/08/25 14:11:14;;;;;;;9.40;2.53;;;;;;;;;;5040263;28;20029;-66
2023/08/25 14:13:41;;;;;;;8.68;2.45;;;;;;;;;;5024578;28;20040;-68
2023/08/25 14:16:07;;;;;;;4.07;2.40;;;;;;;;;;5026592;28;20108;-68
2023/08/25 14:18:32;;;;;;;6.20;2.50;;;;;;;;;;5042657;28;20128;-68
2023/08/25 14:20:58;;;;;;;5.07;2.50;;;;;;;;;;5052323;28;20139;-68
2023/08/25 14:23:24;;;;;;;9.07;2.35;;;;;;;;;;5034480;28;20040;-66
2023/08/25 14:25:50;;;;;;;9.07;2.17;;;;;;;;;;5051294;28;20550;-66
2023/08/25 14:28:16;;;;;;;11.38;2.53;;;;;;;;;;5034012;28;20091;-70
2023/08/25 14:30:42;;;;;;;5.20;1.95;;;;;;;;;;5034052;28;20313;-67
2023/08/25 14:33:08;;;;;;;12.40;2.50;;;;;;;;;;5034258;28;20319;-67
2023/08/25 14:35:37;;;;;;;7.38;2.35;;;;;;;;;;5018064;28;20463;-67
2023/08/25 14:38:02;;;;;;;7.80;2.10;;;;;;;;;;5048855;28;20045;-67
2023/08/25 14:40:28;;;;;;;3.92;1.73;;;;;;;;;;5050376;28;20203;-66